createdAt,value
2022-11-03T11:07:52.317Z,101616.38
2022-11-03T11:10:25.820Z,101616.66
2022-11-03T11:13:07.831Z,101615.94
2022-11-03T11:15:41.721Z,101610.28
2022-11-03T11:18:12.386Z,101604.69
2022-11-03T11:20:44.095Z,101601.47
2022-11-03T11:23:49.862Z,101607.50
2022-11-03T11:26:37.403Z,101609.75
2022-11-03T11:29:46.572Z,101609.31
2022-11-03T11:32:46.264Z,101611.09
2022-11-03T11:35:21.860Z,101600.66
2022-11-03T11:37:52.103Z,101603.53
2022-11-03T11:40:53.340Z,101588.09
2022-11-03T11:43:32.363Z,101591.63
2022-11-03T11:46:41.362Z,101589.94
2022-11-03T11:49:21.032Z,101579.91
2022-11-03T11:51:51.299Z,101577.81
2022-11-03T11:54:23.771Z,101578.25
2022-11-03T11:56:53.861Z,101574.28
2022-11-03T11:59:27.492Z,101571.91
2022-11-03T12:01:59.681Z,101579.03
2022-11-03T12:04:33.522Z,101576.41
2022-11-03T12:07:03.577Z,101576.88
2022-11-03T12:09:33.795Z,101576.81
2022-11-03T12:12:08.667Z,101567.78
2022-11-03T12:14:42.371Z,101565.13
2022-11-03T12:17:37.072Z,101555.56
2022-11-03T12:20:36.759Z,101559.78
2022-11-03T12:23:06.816Z,101553.47
2022-11-03T12:25:40.415Z,101551.09
2022-11-03T12:28:10.653Z,101564.22
2022-11-03T12:30:43.405Z,101557.03
2022-11-03T12:33:13.468Z,101551.72
2022-11-03T12:35:43.647Z,101566.31
2022-11-03T12:38:13.695Z,101554.16
2022-11-03T12:40:43.720Z,101556.22
2022-11-03T12:43:13.717Z,101560.41
2022-11-03T12:45:46.573Z,101559.44
2022-11-03T12:48:16.614Z,101567.03
2022-11-03T12:50:46.660Z,101559.34
2022-11-03T12:53:16.709Z,101562.06
2022-11-03T12:55:46.733Z,101559.59
2022-11-03T12:58:16.795Z,101562.00
2022-11-03T13:00:53.801Z,101553.50
2022-11-03T13:03:25.250Z,101560.06
2022-11-03T13:05:55.672Z,101558.59
2022-11-03T13:08:25.849Z,101554.44
2022-11-03T13:10:56.000Z,101561.50
2022-11-03T13:13:26.065Z,101567.13
2022-11-03T13:15:58.669Z,101562.50
2022-11-03T13:18:28.744Z,101563.66
2022-11-03T13:20:58.786Z,101563.56
2022-11-03T13:23:28.789Z,101570.13
2022-11-03T13:25:58.916Z,101568.50
2022-11-03T13:28:29.240Z,101574.88
2022-11-03T13:31:01.877Z,101566.22
2022-11-03T13:33:31.907Z,101563.31
2022-11-03T13:36:02.013Z,101560.06
2022-11-03T13:38:32.102Z,101568.53
2022-11-03T13:41:08.170Z,101566.50
2022-11-03T13:43:38.978Z,101561.31
2022-11-03T13:46:13.080Z,101560.88
2022-11-03T13:51:33.545Z,101554.00
2022-11-03T13:59:43.616Z,101557.47
2022-11-03T14:05:10.306Z,101563.25
2022-11-03T14:07:41.416Z,101556.81
2022-11-03T14:10:12.545Z,101558.06
2022-11-03T14:12:42.617Z,101556.13
2022-11-03T14:15:14.569Z,101556.16
2022-11-03T14:17:47.216Z,101554.28
2022-11-03T14:20:17.465Z,101561.13
2022-11-03T14:22:47.547Z,101554.97
2022-11-03T14:25:20.335Z,101563.16
2022-11-03T14:27:50.994Z,101562.06
2022-11-03T14:30:21.269Z,101571.66
2022-11-03T14:32:59.200Z,101568.00
2022-11-03T14:35:29.700Z,101572.00
2022-11-03T14:37:59.693Z,101570.25
2022-11-03T14:40:42.059Z,101565.09
2022-11-03T14:43:12.062Z,101564.66
2022-11-03T14:45:42.780Z,101566.63
2022-11-03T14:48:15.608Z,101568.22
2022-11-03T14:50:45.693Z,101570.41
2022-11-03T14:53:15.894Z,101551.63
2022-11-03T14:55:45.999Z,101564.25
2022-11-03T14:58:16.068Z,101577.88
2022-11-03T15:00:46.152Z,101573.41
2022-11-03T15:03:18.928Z,101575.44
2022-11-03T15:05:49.449Z,101575.50
2022-11-03T15:08:21.142Z,101566.44
2022-11-03T15:10:51.516Z,101577.75
2022-11-03T15:13:21.657Z,101577.91
2022-11-03T15:15:51.705Z,101579.44
2022-11-03T15:18:24.516Z,101587.09
2022-11-03T15:20:54.653Z,101588.81
2022-11-03T15:26:15.094Z,101588.19
2022-11-03T15:28:45.304Z,101590.31
2022-11-03T15:31:15.347Z,101586.25
2022-11-03T15:33:48.024Z,101589.13
2022-11-03T15:36:18.227Z,101584.13
2022-11-03T15:38:48.368Z,101585.44
2022-11-03T15:41:19.592Z,101587.94
2022-11-03T15:43:51.295Z,101587.72
2022-11-03T15:46:21.883Z,101588.41
2022-11-03T15:48:54.724Z,101591.28
2022-11-03T15:51:24.743Z,101591.63
2022-11-03T15:53:58.413Z,101593.19
2022-11-03T15:56:28.816Z,101595.09
2022-11-03T15:58:58.872Z,101595.59
2022-11-03T16:01:29.627Z,101599.06
2022-11-03T16:04:02.418Z,101594.84
2022-11-03T16:07:01.797Z,101594.84
2022-11-03T16:09:22.784Z,101591.75
2022-11-03T16:11:52.823Z,101590.09
2022-11-03T16:14:22.843Z,101594.41
2022-11-03T16:16:52.913Z,101592.47
2022-11-03T16:19:25.564Z,101585.31
2022-11-03T16:21:55.683Z,101586.97
2022-11-03T16:24:33.338Z,101585.91
2022-11-03T16:27:05.692Z,101588.91
2022-11-03T16:29:35.785Z,101590.09
2022-11-03T16:32:05.840Z,101592.38
2022-11-03T16:34:38.581Z,101594.16
2022-11-03T16:37:08.584Z,101601.78
2022-11-03T16:39:39.408Z,101595.59
2022-11-03T16:42:09.470Z,101587.34
2022-11-03T16:44:39.548Z,101582.31
2022-11-03T16:47:09.603Z,101587.69
2022-11-03T16:49:43.091Z,101588.78
2022-11-03T16:52:13.140Z,101575.41
2022-11-03T16:54:43.137Z,101585.19
2022-11-03T16:57:13.187Z,101588.78
2022-11-03T16:59:44.230Z,101598.44
2022-11-03T17:02:16.653Z,101596.31
2022-11-03T17:04:50.607Z,101600.13
2022-11-03T17:07:22.577Z,101586.38
2022-11-03T17:09:53.596Z,101578.63
2022-11-03T17:12:24.615Z,101585.78
2022-11-03T17:14:56.931Z,101579.59
2022-11-03T17:17:28.298Z,101588.31
2022-11-03T17:20:02.056Z,101589.75
2022-11-03T17:22:32.419Z,101580.19
2022-11-03T17:25:02.542Z,101590.81
2022-11-03T17:27:40.612Z,101589.63
2022-11-03T17:30:15.675Z,101593.69
2022-11-03T17:32:46.892Z,101592.25
2022-11-03T17:35:22.583Z,101587.81
2022-11-03T17:37:53.169Z,101589.13
2022-11-03T17:40:25.509Z,101587.25
2022-11-03T17:42:55.896Z,101573.50
2022-11-03T17:45:29.099Z,101566.94
2022-11-03T17:47:59.259Z,101565.25
2022-11-03T17:50:31.931Z,101561.91
2022-11-03T17:53:02.030Z,101560.50
2022-11-03T17:55:34.149Z,101558.56
2022-11-03T17:58:06.275Z,101559.88
2022-11-03T18:00:36.874Z,101551.88
2022-11-03T18:03:09.787Z,101556.19
2022-11-03T18:05:42.648Z,101550.44
2022-11-03T18:08:15.035Z,101557.28
2022-11-03T18:10:46.467Z,101552.38
2022-11-03T18:13:18.384Z,101551.03
2022-11-03T18:15:50.713Z,101549.59
2022-11-03T18:18:23.716Z,101547.34
2022-11-03T18:20:57.642Z,101539.16
2022-11-03T18:23:29.309Z,101541.47
2022-11-03T18:25:59.891Z,101548.44
2022-11-03T18:28:30.271Z,101548.81
2022-11-03T18:31:00.458Z,101546.91
2022-11-03T18:33:34.201Z,101549.22
2022-11-03T18:36:09.518Z,101550.06
2022-11-03T18:38:42.956Z,101547.19
2022-11-03T18:41:36.236Z,101548.97
2022-11-03T18:44:12.880Z,101538.19
2022-11-03T18:46:43.083Z,101544.91
2022-11-03T18:49:13.508Z,101539.78
2022-11-03T18:51:51.175Z,101535.41
2022-11-03T18:54:23.609Z,101535.72
2022-11-03T18:56:56.445Z,101533.69
2022-11-03T18:59:29.686Z,101534.66
2022-11-03T19:01:59.902Z,101536.03
2022-11-03T19:04:32.053Z,101533.53
2022-11-03T19:07:08.467Z,101530.16
2022-11-03T19:09:38.604Z,101534.06
2022-11-03T19:12:09.764Z,101531.25
2022-11-03T19:14:43.033Z,101535.09
2022-11-03T19:17:22.814Z,101528.84
2022-11-03T19:19:54.396Z,101529.53
2022-11-03T19:22:27.102Z,101531.91
2022-11-03T19:24:57.125Z,101532.06
2022-11-03T19:27:30.088Z,101530.34
2022-11-03T19:30:04.065Z,101534.03
2022-11-03T19:32:37.522Z,101538.22
2022-11-03T19:35:10.388Z,101532.41
2022-11-03T19:37:43.592Z,101527.66
2022-11-03T19:40:17.026Z,101531.28
2022-11-03T19:42:45.612Z,101525.38
2022-11-03T19:45:18.294Z,101529.47
2022-11-03T19:48:22.737Z,101527.09
2022-11-03T19:50:41.999Z,101530.22
2022-11-03T19:53:19.587Z,101523.97
2022-11-03T19:55:50.005Z,101530.59
2022-11-03T19:58:21.830Z,101531.16
2022-11-03T20:00:53.273Z,101524.25
2022-11-03T20:03:23.718Z,101524.72
2022-11-03T20:05:56.793Z,101529.47
2022-11-03T20:08:32.457Z,101531.78
2022-11-03T20:11:02.633Z,101531.06
2022-11-03T20:13:40.291Z,101529.22
2022-11-03T20:16:15.493Z,101530.78
2022-11-03T20:18:45.815Z,101532.84
2022-11-03T20:21:18.840Z,101534.13
2022-11-03T20:23:53.135Z,101536.06
2022-11-03T20:26:25.359Z,101532.19
2022-11-03T20:28:58.018Z,101533.75
2022-11-03T20:31:29.337Z,101532.81
2022-11-03T20:33:59.448Z,101537.63
2022-11-03T20:36:29.565Z,101539.38
2022-11-03T20:39:04.519Z,101535.41
2022-11-03T20:41:35.664Z,101539.59
2022-11-03T20:44:05.919Z,101544.81
2022-11-03T20:46:36.778Z,101543.91
2022-11-03T20:49:07.407Z,101533.94
2022-11-03T20:51:41.010Z,101540.56
2022-11-03T20:54:18.701Z,101532.03
2022-11-03T20:56:49.207Z,101535.94
2022-11-03T20:59:23.316Z,101530.59
2022-11-03T21:01:54.459Z,101526.19
2022-11-03T21:04:24.665Z,101519.53
2022-11-03T21:06:54.786Z,101518.66
2022-11-03T21:09:27.539Z,101519.13
2022-11-03T21:11:57.774Z,101519.50
2022-11-03T21:14:30.689Z,101518.78
2022-11-03T21:17:13.240Z,101516.00
2022-11-03T21:19:55.776Z,101513.41
2022-11-03T21:25:22.067Z,101505.22
2022-11-03T21:27:52.214Z,101501.91
2022-11-03T21:30:22.666Z,101498.69
2022-11-03T21:32:53.039Z,101496.41
2022-11-03T21:35:24.738Z,101489.97
2022-11-03T21:37:54.889Z,101498.03
2022-11-03T21:40:27.627Z,101492.78
2022-11-03T21:43:10.273Z,101494.78
2022-11-03T21:45:40.484Z,101498.94
2022-11-03T21:48:23.224Z,101491.75
2022-11-03T21:50:53.893Z,101489.63
2022-11-03T21:53:24.092Z,101487.97
2022-11-03T21:55:56.766Z,101485.09
2022-11-03T21:58:26.867Z,101481.81
2022-11-03T22:00:56.971Z,101483.84
2022-11-03T22:03:29.129Z,101485.69
2022-11-03T22:06:02.936Z,101474.94
2022-11-03T22:08:33.064Z,101477.44
2022-11-03T22:11:18.298Z,101467.88
2022-11-03T22:13:48.556Z,101476.50
2022-11-03T22:16:31.414Z,101474.13
2022-11-03T22:19:13.591Z,101472.53
2022-11-03T22:21:55.950Z,101468.56
2022-11-03T22:24:38.426Z,101470.22
2022-11-03T22:27:11.119Z,101472.28
2022-11-03T22:29:53.652Z,101469.47
2022-11-03T22:32:23.831Z,101460.09
2022-11-03T22:35:06.223Z,101459.72
2022-11-03T22:40:17.757Z,101457.66
2022-11-03T22:43:02.859Z,101453.41
2022-11-03T22:45:45.272Z,101448.06
2022-11-03T22:48:15.749Z,101447.25
2022-11-03T22:50:45.799Z,101457.56
2022-11-03T22:53:28.214Z,101448.97
2022-11-03T22:55:58.289Z,101445.59
2022-11-03T22:58:31.161Z,101449.59
2022-11-03T23:01:05.076Z,101448.81
2022-11-03T23:03:35.928Z,101440.75
2022-11-03T23:06:07.272Z,101443.81
2022-11-03T23:08:39.037Z,101430.16
2022-11-03T23:11:16.268Z,101434.38
2022-11-03T23:13:50.636Z,101438.78
2022-11-03T23:16:23.172Z,101438.66
2022-11-03T23:19:05.916Z,101436.16
2022-11-03T23:21:37.508Z,101436.16
2022-11-03T23:24:20.482Z,101429.56
2022-11-03T23:26:50.944Z,101429.09
2022-11-03T23:29:24.361Z,101424.97
2022-11-03T23:31:54.699Z,101420.16
2022-11-03T23:34:25.162Z,101423.69
2022-11-03T23:36:55.585Z,101427.59
2022-11-03T23:39:26.111Z,101408.50
2022-11-03T23:41:56.529Z,101414.84
2022-11-03T23:44:49.213Z,101420.19
2022-11-03T23:47:31.800Z,101414.69
2022-11-03T23:50:01.828Z,101412.88
2022-11-03T23:52:31.884Z,101408.09
2022-11-03T23:55:02.014Z,101414.06
2022-11-03T23:57:44.403Z,101410.03
